createdAt,value
2018-05-01T00:00:18.479Z,0.70
2018-05-01T00:02:46.818Z,1.47
2018-05-01T00:05:15.871Z,0.60
2018-05-01T00:07:44.187Z,1.23
2018-05-01T00:10:13.285Z,0.80
2018-05-01T00:12:42.368Z,0.80
2018-05-01T00:15:12.996Z,1.43
2018-05-01T00:17:41.279Z,1.20
2018-05-01T00:20:10.363Z,0.77
2018-05-01T00:22:38.688Z,1.10
2018-05-01T00:25:06.979Z,1.20
2018-05-01T00:27:35.271Z,1.30
2018-05-01T00:30:03.592Z,2.07
2018-05-01T00:32:32.640Z,1.50
2018-05-01T00:35:00.928Z,2.70
2018-05-01T00:37:29.228Z,1.70
2018-05-01T00:39:58.279Z,1.40
2018-05-01T00:42:26.608Z,1.23
2018-05-01T00:44:55.691Z,1.50
2018-05-01T00:47:24.759Z,1.13
2018-05-01T00:49:53.035Z,1.00
2018-05-01T00:52:33.234Z,1.73
2018-05-01T00:55:02.299Z,1.97
2018-05-01T00:57:31.338Z,1.33
2018-05-01T01:00:00.375Z,1.53
2018-05-01T01:02:28.636Z,2.00
2018-05-01T01:04:56.947Z,1.40
2018-05-01T01:07:25.352Z,1.00
2018-05-01T01:09:53.653Z,1.27
2018-05-01T01:12:21.934Z,1.00
2018-05-01T01:14:50.220Z,1.87
2018-05-01T01:17:18.508Z,1.10
2018-05-01T01:19:46.800Z,1.77
2018-05-01T01:22:15.076Z,1.03
2018-05-01T01:24:43.375Z,1.20
2018-05-01T01:27:12.416Z,1.40
2018-05-01T01:29:40.711Z,1.20
2018-05-01T01:32:14.363Z,1.83
2018-05-01T01:34:44.326Z,1.20
2018-05-01T01:37:12.139Z,1.20
2018-05-01T01:39:40.708Z,1.90
2018-05-01T01:42:08.477Z,1.13
2018-05-01T01:44:36.298Z,1.47
2018-05-01T01:47:04.091Z,0.87
2018-05-01T01:49:32.153Z,1.53
2018-05-01T01:51:59.953Z,1.57
2018-05-01T01:54:27.827Z,1.63
2018-05-01T01:56:56.376Z,1.83
2018-05-01T01:59:24.180Z,1.47
2018-05-01T02:01:52.724Z,1.63
2018-05-01T02:04:20.519Z,1.60
2018-05-01T02:06:49.061Z,1.10
2018-05-01T02:09:16.856Z,1.30
2018-05-01T02:11:45.404Z,1.70
2018-05-01T02:14:13.207Z,1.20
2018-05-01T02:16:41.379Z,1.53
2018-05-01T02:19:09.941Z,1.50
2018-05-01T02:21:38.542Z,1.83
2018-05-01T02:24:07.083Z,1.87
2018-05-01T02:26:35.672Z,1.90
2018-05-01T02:29:03.478Z,1.53
2018-05-01T02:31:32.024Z,2.43
2018-05-01T02:33:59.854Z,1.40
2018-05-01T02:36:27.636Z,1.47
2018-05-01T02:38:56.579Z,1.43
2018-05-01T02:41:25.134Z,1.17
2018-05-01T02:43:52.953Z,1.50
2018-05-01T02:46:20.726Z,1.00
2018-05-01T02:48:50.111Z,1.50
2018-05-01T02:51:17.939Z,0.90
2018-05-01T02:53:51.869Z,1.37
2018-05-01T02:56:19.679Z,1.50
2018-05-01T02:58:47.484Z,1.13
2018-05-01T03:01:15.274Z,1.00
2018-05-01T03:03:43.900Z,0.90
2018-05-01T03:06:11.692Z,1.00
2018-05-01T03:08:39.491Z,0.90
2018-05-01T03:11:07.291Z,1.43
2018-05-01T03:13:35.112Z,1.23
2018-05-01T03:16:03.697Z,1.20
2018-05-01T03:18:32.251Z,1.03
2018-05-01T03:21:00.039Z,1.20
2018-05-01T03:23:28.695Z,1.53
2018-05-01T03:25:56.516Z,1.00
2018-05-01T03:28:24.380Z,0.93
2018-05-01T03:30:52.196Z,0.90
2018-05-01T03:33:20.077Z,1.27
2018-05-01T03:35:47.899Z,0.90
2018-05-01T03:38:15.763Z,1.43
2018-05-01T03:40:43.539Z,1.10
2018-05-01T03:43:11.379Z,0.97
2018-05-01T03:45:39.322Z,1.30
2018-05-01T03:48:07.202Z,1.23
2018-05-01T03:50:34.988Z,0.93
2018-05-01T03:53:02.920Z,2.70
2018-05-01T03:55:31.522Z,1.30
2018-05-01T03:57:59.373Z,1.47
2018-05-01T04:00:27.965Z,1.20
2018-05-01T04:02:55.835Z,1.53
2018-05-01T04:05:23.809Z,1.73
2018-05-01T04:07:51.631Z,1.20
2018-05-01T04:10:19.444Z,1.30
2018-05-01T04:12:47.353Z,1.60
2018-05-01T04:15:15.168Z,1.70
2018-05-01T04:17:42.995Z,2.60
2018-05-01T04:20:11.612Z,1.10
2018-05-01T04:22:39.360Z,1.27
2018-05-01T04:25:07.146Z,1.00
2018-05-01T04:27:34.936Z,1.43
2018-05-01T04:30:02.748Z,1.33
2018-05-01T04:32:30.603Z,1.23
2018-05-01T04:34:59.879Z,0.70
2018-05-01T04:37:27.775Z,0.80
2018-05-01T04:39:56.363Z,1.27
2018-05-01T04:42:24.195Z,0.90
2018-05-01T04:44:52.067Z,0.90
2018-05-01T04:47:19.923Z,0.87
2018-05-01T04:49:47.711Z,1.30
2018-05-01T04:52:15.568Z,1.10
2018-05-01T04:54:43.379Z,0.80
2018-05-01T04:57:12.007Z,0.90
2018-05-01T04:59:39.802Z,1.37
2018-05-01T05:02:07.602Z,0.80
2018-05-01T05:04:35.427Z,1.23
2018-05-01T05:07:03.265Z,1.10
2018-05-01T05:09:31.127Z,0.90
2018-05-01T05:11:58.839Z,1.00
2018-05-01T05:14:27.426Z,1.00
2018-05-01T05:16:55.211Z,0.60
2018-05-01T05:19:23.027Z,1.00
2018-05-01T05:21:51.643Z,0.80
2018-05-01T05:24:19.419Z,0.90
2018-05-01T05:26:47.241Z,1.83
2018-05-01T05:29:15.977Z,0.77
2018-05-01T05:31:43.783Z,1.00
2018-05-01T05:34:11.591Z,1.30
2018-05-01T05:36:40.135Z,0.70
2018-05-01T05:39:07.958Z,0.90
2018-05-01T05:41:35.754Z,1.03
2018-05-01T05:44:03.560Z,1.30
2018-05-01T05:46:31.351Z,1.33
2018-05-01T05:48:59.168Z,1.23
2018-05-01T05:51:26.953Z,1.50
2018-05-01T05:53:55.530Z,1.30
2018-05-01T05:56:23.303Z,1.27
2018-05-01T05:58:51.850Z,1.30
2018-05-01T06:01:19.679Z,1.13
2018-05-01T06:03:47.475Z,1.27
2018-05-01T06:06:15.343Z,1.00
2018-05-01T06:08:43.168Z,1.27
2018-05-01T06:11:10.983Z,1.80
2018-05-01T06:13:38.883Z,1.30
2018-05-01T06:16:06.607Z,1.43
2018-05-01T06:18:34.399Z,1.30
2018-05-01T06:21:02.971Z,1.23
2018-05-01T06:23:30.746Z,1.40
2018-05-01T06:25:59.336Z,1.30
2018-05-01T06:28:27.884Z,1.97
2018-05-01T06:30:55.696Z,1.70
2018-05-01T06:33:23.527Z,1.30
2018-05-01T06:35:51.319Z,1.17
2018-05-01T06:38:19.155Z,1.50
2018-05-01T06:40:46.955Z,1.30
2018-05-01T06:43:15.511Z,1.20
2018-05-01T06:45:43.324Z,1.33
2018-05-01T06:48:11.141Z,1.13
2018-05-01T06:50:39.017Z,1.03
2018-05-01T06:53:06.750Z,1.40
2018-05-01T06:55:34.568Z,1.47
2018-05-01T06:58:03.113Z,1.30
2018-05-01T07:00:30.931Z,0.80
2018-05-01T07:02:58.760Z,0.80
2018-05-01T07:05:26.551Z,1.10
2018-05-01T07:07:54.343Z,2.20
2018-05-01T07:10:22.309Z,0.87
2018-05-01T07:12:50.832Z,0.70
2018-05-01T07:15:18.643Z,0.87
2018-05-01T07:17:46.454Z,1.20
2018-05-01T07:20:14.239Z,1.10
2018-05-01T07:22:42.811Z,1.10
2018-05-01T07:25:10.600Z,0.90
2018-05-01T07:27:39.179Z,0.80
2018-05-01T07:30:07.739Z,0.80
2018-05-01T07:32:36.330Z,0.70
2018-05-01T07:35:04.137Z,0.80
2018-05-01T07:37:32.554Z,0.90
2018-05-01T07:40:00.367Z,0.60
2018-05-01T07:42:28.179Z,0.80
2018-05-01T07:44:55.979Z,0.80
2018-05-01T07:47:24.529Z,0.80
2018-05-01T07:49:52.342Z,1.00
2018-05-01T07:52:20.899Z,0.90
2018-05-01T07:54:48.712Z,0.50
2018-05-01T07:57:16.520Z,0.90
2018-05-01T07:59:44.335Z,0.60
2018-05-01T08:02:12.120Z,1.07
2018-05-01T08:04:39.945Z,1.00
2018-05-01T08:07:08.528Z,0.80
2018-05-01T08:09:37.225Z,0.80
2018-05-01T08:12:05.862Z,0.60
2018-05-01T08:14:33.635Z,0.80
2018-05-01T08:17:02.213Z,0.80
2018-05-01T08:19:29.995Z,0.90
2018-05-01T08:21:58.580Z,0.70
2018-05-01T08:24:27.155Z,1.17
2018-05-01T08:26:55.762Z,1.10
2018-05-01T08:29:24.346Z,1.00
2018-05-01T08:31:52.158Z,0.93
2018-05-01T08:34:19.975Z,0.90
2018-05-01T08:36:47.909Z,1.13
2018-05-01T08:39:15.719Z,1.10
2018-05-01T08:41:43.536Z,1.10
2018-05-01T08:44:11.421Z,0.87
2018-05-01T08:46:39.288Z,2.37
2018-05-01T08:49:07.887Z,1.00
2018-05-01T08:51:35.684Z,0.80
2018-05-01T08:54:03.459Z,1.20
2018-05-01T08:56:31.295Z,1.17
2018-05-01T08:58:59.680Z,1.03
2018-05-01T09:01:27.502Z,1.00
2018-05-01T09:03:55.320Z,0.90
2018-05-01T09:06:23.150Z,1.00
2018-05-01T09:08:51.689Z,1.20
2018-05-01T09:11:19.499Z,1.80
2018-05-01T09:13:47.271Z,1.40
2018-05-01T09:16:15.836Z,1.00
2018-05-01T09:18:43.614Z,1.53
2018-05-01T09:21:12.183Z,1.87
2018-05-01T09:23:39.996Z,1.40
2018-05-01T09:26:07.799Z,1.57
2018-05-01T09:28:36.457Z,1.50
2018-05-01T09:31:04.251Z,1.57
2018-05-01T09:33:32.122Z,1.47
2018-05-01T09:35:59.903Z,1.50
2018-05-01T09:38:28.474Z,1.90
2018-05-01T09:40:56.275Z,1.10
2018-05-01T09:43:24.842Z,1.40
2018-05-01T09:45:52.643Z,1.50
2018-05-01T09:48:20.441Z,1.13
2018-05-01T09:50:48.254Z,2.43
2018-05-01T09:53:16.697Z,2.47
2018-05-01T09:55:44.979Z,1.27
2018-05-01T09:58:14.824Z,1.80
2018-05-01T10:00:43.099Z,1.13
2018-05-01T10:03:11.411Z,1.33
2018-05-01T10:05:39.693Z,1.00
2018-05-01T10:08:08.004Z,1.10
2018-05-01T10:10:36.300Z,1.57
2018-05-01T10:13:04.610Z,1.43
2018-05-01T10:15:32.913Z,1.50
2018-05-01T10:18:01.316Z,1.80
2018-05-01T10:20:30.397Z,1.67
2018-05-01T10:22:58.681Z,2.10
2018-05-01T10:25:27.726Z,1.60
2018-05-01T10:27:56.024Z,1.60
2018-05-01T10:30:25.275Z,2.10
2018-05-01T10:32:54.329Z,1.27
2018-05-01T10:35:22.643Z,1.50
2018-05-01T10:37:51.090Z,1.50
2018-05-01T10:40:20.872Z,2.40
2018-05-01T10:42:49.207Z,1.77
2018-05-01T10:45:17.518Z,1.70
2018-05-01T10:47:45.835Z,1.50
2018-05-01T10:50:14.158Z,2.20
2018-05-01T10:52:42.459Z,1.97
2018-05-01T10:55:10.857Z,3.10
2018-05-01T10:57:39.828Z,2.30
2018-05-01T11:00:08.124Z,2.07
2018-05-01T11:02:36.542Z,2.00
2018-05-01T11:05:04.845Z,2.53
2018-05-01T11:07:33.337Z,2.43
2018-05-01T11:10:01.874Z,2.40
2018-05-01T11:12:30.927Z,2.13
2018-05-01T11:14:59.241Z,2.50
2018-05-01T11:17:28.424Z,1.50
2018-05-01T11:19:56.706Z,2.00
2018-05-01T11:22:25.816Z,2.00
2018-05-01T11:24:54.894Z,2.30
2018-05-01T11:27:23.955Z,1.73
2018-05-01T11:29:52.284Z,2.10
2018-05-01T11:32:21.320Z,1.90
2018-05-01T11:34:49.689Z,2.30
2018-05-01T11:37:17.980Z,2.70
2018-05-01T11:39:47.076Z,1.93
2018-05-01T11:42:15.399Z,1.87
2018-05-01T11:44:43.675Z,2.93
2018-05-01T11:47:12.811Z,2.07
2018-05-01T11:49:41.149Z,2.40
2018-05-01T11:52:09.448Z,2.30
2018-05-01T11:54:37.778Z,3.30
2018-05-01T11:57:06.104Z,2.80
2018-05-01T11:59:34.404Z,3.77
2018-05-01T12:02:02.730Z,1.67
2018-05-01T12:04:31.826Z,2.40
2018-05-01T12:07:00.938Z,2.23
2018-05-01T12:09:29.224Z,2.27
2018-05-01T12:11:57.531Z,2.40
2018-05-01T12:14:25.825Z,2.70
2018-05-01T12:16:54.155Z,2.90
2018-05-01T12:19:22.439Z,2.80
2018-05-01T12:21:50.746Z,2.53
2018-05-01T12:24:19.069Z,2.63
2018-05-01T12:26:48.221Z,2.40
2018-05-01T12:29:16.513Z,2.67
2018-05-01T12:31:44.898Z,2.73
2018-05-01T12:34:13.154Z,1.90
2018-05-01T12:36:42.121Z,2.53
2018-05-01T12:39:10.354Z,3.40
2018-05-01T12:41:38.614Z,2.07
2018-05-01T12:44:06.884Z,2.40
2018-05-01T12:46:35.288Z,2.10
2018-05-01T12:49:03.572Z,1.70
2018-05-01T12:51:31.879Z,1.97
2018-05-01T12:54:00.144Z,2.00
2018-05-01T12:56:28.451Z,2.17
2018-05-01T12:58:56.761Z,2.10
2018-05-01T13:01:25.033Z,1.93
2018-05-01T13:03:54.897Z,1.93
2018-05-01T13:06:23.186Z,2.60
2018-05-01T13:08:51.486Z,1.80
2018-05-01T13:11:20.243Z,1.83
2018-05-01T13:13:48.529Z,2.30
2018-05-01T13:16:16.826Z,2.10
2018-05-01T13:18:45.134Z,1.97
2018-05-01T13:21:13.414Z,2.20
2018-05-01T13:23:41.667Z,2.40
2018-05-01T13:26:09.975Z,2.20
2018-05-01T13:28:38.280Z,1.67
2018-05-01T13:31:06.571Z,1.80
2018-05-01T13:33:34.884Z,2.00
2018-05-01T13:36:03.948Z,1.90
2018-05-01T13:38:32.231Z,1.73
2018-05-01T13:41:00.544Z,2.40
2018-05-01T13:43:29.588Z,1.73
2018-05-01T13:45:57.888Z,2.10
2018-05-01T13:48:26.200Z,1.87
2018-05-01T13:50:55.239Z,1.80
2018-05-01T13:53:23.556Z,2.50
2018-05-01T13:55:52.627Z,2.50
2018-05-01T13:58:21.715Z,3.17
2018-05-01T14:00:50.099Z,1.83
2018-05-01T14:03:18.395Z,2.63
2018-05-01T14:05:47.576Z,2.33
2018-05-01T14:08:15.845Z,3.27
2018-05-01T14:10:44.135Z,1.93
2018-05-01T14:13:12.507Z,2.40
2018-05-01T14:15:41.872Z,2.90
2018-05-01T14:18:10.175Z,2.47
2018-05-01T14:20:38.568Z,2.60
2018-05-01T14:23:06.836Z,2.37
2018-05-01T14:25:35.153Z,2.87
2018-05-01T14:28:03.399Z,2.33
2018-05-01T14:30:31.680Z,3.03
2018-05-01T14:33:00.755Z,2.60
2018-05-01T14:35:29.050Z,3.03
2018-05-01T14:37:58.143Z,2.40
2018-05-01T14:40:26.415Z,1.90
2018-05-01T14:42:55.486Z,2.50
2018-05-01T14:45:23.776Z,2.77
2018-05-01T14:47:52.046Z,3.10
2018-05-01T14:50:20.328Z,4.90
2018-05-01T14:52:48.620Z,3.10
2018-05-01T14:55:17.697Z,3.33
2018-05-01T14:57:45.990Z,3.10
2018-05-01T15:00:14.287Z,3.60
2018-05-01T15:02:55.067Z,3.97
2018-05-01T15:05:24.107Z,2.73
2018-05-01T15:07:52.388Z,3.07
2018-05-01T15:10:20.678Z,3.97
2018-05-01T15:12:48.981Z,2.90
2018-05-01T15:15:18.023Z,3.50
2018-05-01T15:17:46.353Z,4.10
2018-05-01T15:20:15.421Z,2.90
2018-05-01T15:22:43.728Z,3.10
2018-05-01T15:25:12.031Z,3.10
2018-05-01T15:27:40.356Z,2.80
2018-05-01T15:30:09.501Z,2.97
2018-05-01T15:32:37.803Z,3.50
2018-05-01T15:35:06.085Z,3.37
2018-05-01T15:37:35.994Z,3.10
2018-05-01T15:40:04.273Z,2.80
2018-05-01T15:42:32.571Z,2.70
2018-05-01T15:45:01.657Z,3.13
2018-05-01T15:47:29.931Z,3.13
2018-05-01T15:49:58.230Z,2.30
2018-05-01T15:52:27.281Z,2.77
2018-05-01T15:54:55.565Z,2.87
2018-05-01T15:57:23.860Z,2.30
2018-05-01T15:59:53.712Z,3.47
2018-05-01T16:02:22.012Z,3.03
2018-05-01T16:04:50.299Z,2.60
2018-05-01T16:07:18.639Z,2.53
2018-05-01T16:09:47.692Z,2.70
2018-05-01T16:12:15.964Z,4.03
2018-05-01T16:14:44.247Z,2.87
2018-05-01T16:17:12.532Z,2.93
2018-05-01T16:19:40.792Z,3.03
2018-05-01T16:22:09.764Z,3.40
2018-05-01T16:24:38.091Z,3.40
2018-05-01T16:27:06.361Z,3.20
2018-05-01T16:29:34.628Z,3.23
2018-05-01T16:32:03.691Z,3.50
2018-05-01T16:34:31.989Z,3.50
2018-05-01T16:37:00.280Z,4.20
2018-05-01T16:39:28.583Z,3.60
2018-05-01T16:41:56.895Z,3.70
2018-05-01T16:44:25.189Z,4.03
2018-05-01T16:46:54.978Z,4.53
2018-05-01T16:49:23.271Z,3.70
2018-05-01T16:51:51.548Z,4.10
2018-05-01T16:54:19.843Z,3.50
2018-05-01T16:56:48.152Z,3.63
2018-05-01T16:59:16.400Z,4.00
2018-05-01T17:01:45.494Z,4.40
2018-05-01T17:04:13.771Z,3.03
2018-05-01T17:06:42.867Z,3.70
2018-05-01T17:09:11.245Z,4.43
2018-05-01T17:11:39.524Z,3.87
2018-05-01T17:14:07.779Z,3.23
2018-05-01T17:16:36.080Z,4.27
2018-05-01T17:19:05.172Z,4.07
2018-05-01T17:21:34.367Z,3.40
2018-05-01T17:24:03.441Z,3.73
2018-05-01T17:26:31.743Z,3.50
2018-05-01T17:29:00.056Z,4.80
2018-05-01T17:31:28.336Z,3.50
2018-05-01T17:33:56.638Z,3.30
2018-05-01T17:36:25.044Z,3.70
2018-05-01T17:38:54.106Z,5.20
2018-05-01T17:41:22.372Z,5.57
2018-05-01T17:43:50.763Z,8.43
2018-05-01T17:46:19.112Z,5.87
2018-05-01T17:48:47.417Z,4.30
2018-05-01T17:51:15.731Z,4.77
2018-05-01T17:53:44.805Z,6.90
2018-05-01T17:56:13.115Z,3.93
2018-05-01T17:58:42.184Z,4.07
2018-05-01T18:01:10.483Z,3.57
2018-05-01T18:03:39.858Z,3.73
2018-05-01T18:06:08.939Z,3.77
2018-05-01T18:08:37.220Z,4.10
2018-05-01T18:11:05.528Z,3.73
2018-05-01T18:13:34.607Z,4.10
2018-05-01T18:16:03.571Z,4.07
2018-05-01T18:18:31.871Z,4.60
2018-05-01T18:21:00.753Z,2.97
2018-05-01T18:23:29.044Z,3.97
2018-05-01T18:25:57.385Z,5.80
2018-05-01T18:28:25.690Z,3.83
2018-05-01T18:30:53.991Z,3.77
2018-05-01T18:33:22.303Z,3.50
2018-05-01T18:35:51.293Z,3.83
2018-05-01T18:38:19.583Z,3.90
2018-05-01T18:40:47.880Z,3.70
2018-05-01T18:43:16.215Z,4.10
2018-05-01T18:45:45.266Z,3.43
2018-05-01T18:48:13.540Z,4.07
2018-05-01T18:50:41.848Z,3.63
2018-05-01T18:53:10.060Z,4.67
2018-05-01T18:55:39.483Z,4.03
2018-05-01T18:58:07.778Z,4.40
2018-05-01T19:00:36.088Z,4.57
2018-05-01T19:03:05.139Z,4.10
2018-05-01T19:05:33.440Z,3.80
2018-05-01T19:08:01.960Z,4.60
2018-05-01T19:10:30.311Z,4.63
2018-05-01T19:12:58.560Z,5.00
2018-05-01T19:15:26.906Z,4.50
2018-05-01T19:17:56.071Z,4.97
2018-05-01T19:20:24.397Z,4.70
2018-05-01T19:22:52.679Z,5.70
2018-05-01T19:25:20.951Z,4.33
2018-05-01T19:27:49.261Z,4.63
2018-05-01T19:30:18.348Z,4.40
2018-05-01T19:32:46.635Z,4.20
2018-05-01T19:35:14.930Z,4.23
2018-05-01T19:37:44.067Z,5.80
2018-05-01T19:40:12.380Z,5.00
2018-05-01T19:42:40.676Z,4.87
2018-05-01T19:45:08.969Z,4.97
2018-05-01T19:47:38.007Z,5.43
2018-05-01T19:50:06.323Z,4.20
2018-05-01T19:52:35.380Z,5.67
2018-05-01T19:55:03.640Z,4.80
2018-05-01T19:57:31.940Z,4.37
2018-05-01T20:00:00.220Z,4.10
2018-05-01T20:02:29.144Z,5.63
2018-05-01T20:04:57.446Z,5.83
2018-05-01T20:07:25.735Z,4.87
2018-05-01T20:09:54.082Z,6.00
2018-05-01T20:12:23.831Z,5.10
2018-05-01T20:14:52.951Z,4.90
2018-05-01T20:17:22.013Z,4.80
2018-05-01T20:19:50.323Z,6.53
2018-05-01T20:22:19.379Z,5.80
2018-05-01T20:24:47.684Z,5.77
2018-05-01T20:27:15.983Z,6.27
2018-05-01T20:29:44.268Z,6.97
2018-05-01T20:32:12.534Z,6.73
2018-05-01T20:34:40.861Z,7.30
2018-05-01T20:37:09.156Z,5.53
2018-05-01T20:39:38.321Z,6.83
2018-05-01T20:42:06.611Z,5.70
2018-05-01T20:44:34.887Z,5.73
2018-05-01T20:47:03.175Z,6.10
2018-05-01T20:49:32.187Z,6.07
2018-05-01T20:52:01.284Z,6.07
2018-05-01T20:54:29.558Z,5.50
2018-05-01T20:56:57.852Z,5.57
2018-05-01T20:59:26.945Z,6.33
2018-05-01T21:01:55.227Z,6.10
2018-05-01T21:04:23.540Z,7.07
2018-05-01T21:06:51.807Z,6.20
2018-05-01T21:09:20.870Z,6.50
2018-05-01T21:11:49.723Z,6.60
2018-05-01T21:14:18.032Z,6.50
2018-05-01T21:16:47.088Z,6.93
2018-05-01T21:19:15.363Z,7.77
2018-05-01T21:21:43.731Z,6.43
2018-05-01T21:24:11.972Z,5.67
2018-05-01T21:26:41.045Z,6.90
2018-05-01T21:29:09.372Z,6.97
2018-05-01T21:31:37.687Z,8.87
2018-05-01T21:34:06.728Z,5.60
2018-05-01T21:36:35.016Z,6.23
2018-05-01T21:39:04.328Z,6.87
2018-05-01T21:41:32.623Z,5.57
2018-05-01T21:44:01.451Z,5.67
2018-05-01T21:46:30.499Z,5.23
2018-05-01T21:48:58.769Z,6.20
2018-05-01T21:51:27.032Z,5.33
2018-05-01T21:53:55.377Z,4.87
2018-05-01T21:56:23.631Z,6.40
2018-05-01T21:58:51.939Z,5.80
2018-05-01T22:01:20.970Z,7.03
2018-05-01T22:03:49.255Z,6.60
2018-05-01T22:06:17.592Z,6.50
2018-05-01T22:08:46.760Z,7.30
2018-05-01T22:11:15.824Z,8.00
2018-05-01T22:13:44.132Z,8.37
2018-05-01T22:16:13.068Z,8.20
2018-05-01T22:18:41.339Z,8.07
2018-05-01T22:21:09.648Z,9.27
2018-05-01T22:23:37.940Z,8.63
2018-05-01T22:26:07.014Z,9.93
2018-05-01T22:28:35.296Z,8.20
2018-05-01T22:31:03.568Z,9.30
2018-05-01T22:33:33.652Z,9.43
2018-05-01T22:36:02.671Z,9.77
2018-05-01T22:38:30.993Z,9.33
2018-05-01T22:41:00.190Z,9.03
2018-05-01T22:43:28.480Z,6.87
2018-05-01T22:45:56.871Z,7.63
2018-05-01T22:48:25.919Z,7.70
2018-05-01T22:50:55.167Z,8.10
2018-05-01T22:53:24.324Z,10.83
2018-05-01T22:55:52.607Z,16.93
2018-05-01T22:58:20.892Z,11.77
2018-05-01T23:00:49.941Z,10.50
2018-05-01T23:03:18.252Z,10.77
2018-05-01T23:05:46.527Z,8.20
2018-05-01T23:08:15.731Z,9.23
2018-05-01T23:10:44.028Z,9.00
2018-05-01T23:13:13.103Z,8.37
2018-05-01T23:15:41.370Z,10.67
2018-05-01T23:18:11.167Z,10.77
2018-05-01T23:20:39.578Z,11.90
2018-05-01T23:23:08.635Z,9.80
2018-05-01T23:25:36.925Z,8.40
2018-05-01T23:28:05.219Z,9.13
2018-05-01T23:30:33.505Z,7.00
2018-05-01T23:33:02.560Z,8.30
2018-05-01T23:35:30.861Z,8.20
2018-05-01T23:37:59.767Z,8.60
2018-05-01T23:40:28.831Z,9.37
2018-05-01T23:42:57.096Z,9.30
2018-05-01T23:45:25.381Z,9.40
2018-05-01T23:47:53.669Z,8.87
2018-05-01T23:50:22.771Z,8.20
2018-05-01T23:52:51.064Z,10.20
2018-05-01T23:55:20.115Z,8.07
2018-05-01T23:57:48.430Z,8.20
